createdAt,value
2022-08-29T00:01:13.709Z,6.18
2022-08-29T00:03:41.137Z,5.55
2022-08-29T00:06:11.941Z,5.55
2022-08-29T00:08:39.573Z,4.78
2022-08-29T00:11:07.977Z,4.93
2022-08-29T00:13:35.529Z,5.63
2022-08-29T00:16:03.413Z,5.30
2022-08-29T00:18:30.911Z,5.30
2022-08-29T00:20:58.322Z,5.35
2022-08-29T00:23:27.028Z,5.38
2022-08-29T00:25:54.757Z,5.00
2022-08-29T00:28:22.179Z,5.28
2022-08-29T00:30:49.694Z,5.88
2022-08-29T00:33:17.420Z,5.38
2022-08-29T00:35:46.345Z,5.45
2022-08-29T00:38:19.354Z,5.90
2022-08-29T00:40:51.998Z,5.32
2022-08-29T00:43:21.807Z,5.72
2022-08-29T00:45:52.815Z,5.53
2022-08-29T00:48:20.643Z,6.05
2022-08-29T00:50:52.490Z,5.40
2022-08-29T00:53:24.681Z,5.15
2022-08-29T00:55:53.367Z,5.38
2022-08-29T00:58:26.483Z,5.57
2022-08-29T01:00:54.480Z,4.28
2022-08-29T01:03:21.991Z,5.32
2022-08-29T01:05:49.705Z,5.35
2022-08-29T01:08:17.243Z,6.13
2022-08-29T01:11:02.275Z,5.20
2022-08-29T01:13:34.935Z,5.68
2022-08-29T01:16:03.474Z,5.88
2022-08-29T01:18:32.537Z,5.47
2022-08-29T01:21:04.781Z,5.22
2022-08-29T01:23:35.426Z,5.38
2022-08-29T01:26:04.884Z,5.30
2022-08-29T01:28:35.214Z,5.82
2022-08-29T01:31:05.767Z,5.32
2022-08-29T01:33:39.286Z,5.05
2022-08-29T01:36:07.275Z,5.10
2022-08-29T01:38:34.919Z,5.15
2022-08-29T01:41:05.545Z,5.53
2022-08-29T01:43:39.780Z,5.38
2022-08-29T01:46:07.192Z,5.78
2022-08-29T01:48:37.484Z,5.63
2022-08-29T01:51:04.932Z,5.10
2022-08-29T01:53:32.333Z,5.63
2022-08-29T01:55:59.911Z,5.30
2022-08-29T01:58:28.590Z,5.65
2022-08-29T02:00:56.062Z,4.60
2022-08-29T02:03:23.489Z,5.35
2022-08-29T02:05:50.891Z,5.00
2022-08-29T02:08:20.100Z,5.28
2022-08-29T02:10:48.160Z,4.82
2022-08-29T02:13:15.556Z,5.85
2022-08-29T02:15:44.252Z,5.60
2022-08-29T02:18:11.729Z,5.70
2022-08-29T02:20:39.267Z,6.10
2022-08-29T02:23:17.293Z,6.13
2022-08-29T02:25:54.393Z,5.80
2022-08-29T02:28:22.284Z,5.85
2022-08-29T02:30:56.503Z,6.68
2022-08-29T02:33:24.548Z,5.90
2022-08-29T02:35:53.229Z,6.38
2022-08-29T02:38:21.248Z,5.47
2022-08-29T02:40:49.842Z,5.85
2022-08-29T02:43:19.134Z,6.07
2022-08-29T02:45:47.609Z,5.72
2022-08-29T02:48:17.826Z,6.25
2022-08-29T02:50:46.693Z,6.00
2022-08-29T02:53:16.834Z,6.20
2022-08-29T02:55:44.199Z,5.95
2022-08-29T02:58:11.656Z,6.07
2022-08-29T03:00:39.106Z,6.15
2022-08-29T03:03:06.596Z,6.10
2022-08-29T03:05:37.105Z,6.32
2022-08-29T03:08:07.570Z,6.18
2022-08-29T03:10:34.971Z,6.03
2022-08-29T03:13:02.502Z,5.63
2022-08-29T03:15:29.871Z,5.95
2022-08-29T03:17:57.365Z,5.70
2022-08-29T03:20:25.497Z,6.13
2022-08-29T03:22:55.424Z,5.43
2022-08-29T03:25:24.341Z,6.13
2022-08-29T03:27:52.794Z,6.43
2022-08-29T03:30:20.895Z,5.97
2022-08-29T03:32:51.260Z,6.18
2022-08-29T03:35:19.566Z,7.00
2022-08-29T03:37:46.972Z,6.03
2022-08-29T03:40:15.774Z,6.30
2022-08-29T03:42:43.776Z,6.43
2022-08-29T03:45:14.372Z,6.22
2022-08-29T03:47:42.021Z,6.90
2022-08-29T03:50:10.762Z,6.35
2022-08-29T03:52:38.442Z,6.30
2022-08-29T03:55:08.271Z,6.50
2022-08-29T03:57:37.131Z,6.65
2022-08-29T04:00:11.801Z,6.78
2022-08-29T04:02:39.634Z,6.90
2022-08-29T04:05:10.205Z,6.78
2022-08-29T04:07:42.573Z,6.15
2022-08-29T04:10:11.383Z,6.47
2022-08-29T04:12:40.109Z,6.78
2022-08-29T04:15:08.835Z,6.68
2022-08-29T04:17:37.283Z,6.80
2022-08-29T04:20:21.652Z,6.97
2022-08-29T04:22:52.133Z,6.90
2022-08-29T04:25:19.503Z,6.75
2022-08-29T04:27:49.385Z,6.97
2022-08-29T04:30:18.605Z,6.55
2022-08-29T04:32:46.081Z,7.43
2022-08-29T04:35:15.624Z,7.15
2022-08-29T04:37:43.645Z,6.97
2022-08-29T04:40:15.477Z,6.78
2022-08-29T04:42:43.512Z,7.18
2022-08-29T04:45:14.548Z,7.10
2022-08-29T04:47:42.929Z,6.82
2022-08-29T04:50:12.701Z,7.22
2022-08-29T04:52:40.473Z,6.63
2022-08-29T04:55:09.730Z,6.63
2022-08-29T04:57:38.132Z,7.15
2022-08-29T05:00:07.613Z,7.82
2022-08-29T05:02:36.352Z,6.93
2022-08-29T05:05:04.254Z,6.80
2022-08-29T05:07:31.615Z,6.95
2022-08-29T05:10:02.134Z,6.70
2022-08-29T05:12:31.344Z,8.00
2022-08-29T05:14:58.832Z,6.82
2022-08-29T05:17:26.888Z,6.72
2022-08-29T05:19:55.648Z,7.13
2022-08-29T05:22:23.543Z,6.68
2022-08-29T05:24:51.134Z,6.57
2022-08-29T05:27:22.927Z,6.93
2022-08-29T05:29:52.235Z,6.88
2022-08-29T05:32:21.330Z,7.03
2022-08-29T05:34:50.076Z,7.20
2022-08-29T05:37:20.575Z,7.22
2022-08-29T05:39:48.608Z,6.28
2022-08-29T05:42:17.265Z,6.95
2022-08-29T05:44:44.991Z,6.95
2022-08-29T05:47:14.133Z,7.30
2022-08-29T05:49:43.130Z,7.20
2022-08-29T05:52:10.803Z,7.72
2022-08-29T05:54:41.736Z,7.40
2022-08-29T05:57:11.645Z,7.00
2022-08-29T05:59:41.788Z,7.45
2022-08-29T06:02:10.870Z,7.63
2022-08-29T06:04:39.051Z,7.25
2022-08-29T06:07:07.133Z,7.55
2022-08-29T06:09:34.976Z,7.70
2022-08-29T06:12:04.322Z,7.78
2022-08-29T06:14:31.792Z,7.32
2022-08-29T06:16:59.441Z,6.78
2022-08-29T06:19:29.088Z,7.40
2022-08-29T06:21:56.934Z,7.05
2022-08-29T06:24:24.303Z,7.65
2022-08-29T06:26:51.681Z,6.82
2022-08-29T06:29:20.397Z,7.40
2022-08-29T06:31:47.786Z,7.07
2022-08-29T06:34:15.174Z,7.63
2022-08-29T06:36:43.036Z,7.70
2022-08-29T06:39:11.223Z,7.85
2022-08-29T06:41:39.963Z,6.75
2022-08-29T06:44:07.991Z,7.80
2022-08-29T06:46:38.541Z,7.72
2022-08-29T06:49:09.791Z,7.53
2022-08-29T06:51:38.239Z,7.50
2022-08-29T06:54:07.727Z,6.57
2022-08-29T06:56:36.619Z,6.68
2022-08-29T06:59:04.772Z,6.68
2022-08-29T07:01:32.260Z,7.90
2022-08-29T07:04:03.193Z,7.20
2022-08-29T07:06:31.238Z,6.95
2022-08-29T07:08:59.163Z,7.55
2022-08-29T07:11:28.102Z,7.00
2022-08-29T07:13:57.015Z,7.45
2022-08-29T07:16:24.537Z,7.65
2022-08-29T07:18:53.758Z,7.72
2022-08-29T07:21:24.469Z,8.02
2022-08-29T07:23:52.705Z,8.30
2022-08-29T07:26:22.733Z,7.18
2022-08-29T07:28:51.417Z,8.60
2022-08-29T07:31:19.498Z,7.40
2022-08-29T07:33:47.068Z,7.68
2022-08-29T07:36:14.587Z,8.10
2022-08-29T07:38:43.312Z,7.40
2022-08-29T07:41:14.226Z,8.10
2022-08-29T07:43:41.862Z,8.20
2022-08-29T07:46:10.230Z,7.43
2022-08-29T07:48:39.456Z,7.63
2022-08-29T07:51:10.469Z,8.43
2022-08-29T07:53:38.155Z,7.75
2022-08-29T07:56:08.502Z,8.07
2022-08-29T07:58:36.237Z,7.40
2022-08-29T08:01:04.200Z,7.75
2022-08-29T08:03:31.868Z,7.57
2022-08-29T08:05:59.447Z,7.70
2022-08-29T08:08:27.063Z,7.53
2022-08-29T08:10:54.850Z,8.07
2022-08-29T08:13:23.974Z,7.82
2022-08-29T08:15:51.335Z,7.60
2022-08-29T08:18:18.708Z,7.38
2022-08-29T08:20:48.288Z,7.65
2022-08-29T08:23:16.973Z,7.50
2022-08-29T08:25:45.656Z,7.88
2022-08-29T08:28:14.461Z,7.50
2022-08-29T08:30:43.362Z,7.32
2022-08-29T08:33:10.882Z,7.43
2022-08-29T08:35:41.848Z,6.35
2022-08-29T08:38:10.150Z,7.40
2022-08-29T08:40:43.272Z,7.15
2022-08-29T08:43:11.397Z,8.57
2022-08-29T08:45:41.920Z,6.80
2022-08-29T08:48:16.550Z,7.10
2022-08-29T08:50:49.126Z,6.75
2022-08-29T08:53:21.385Z,7.28
2022-08-29T08:55:50.236Z,7.20
2022-08-29T08:58:29.215Z,6.72
2022-08-29T09:01:00.469Z,6.72
2022-08-29T09:04:03.991Z,7.18
2022-08-29T09:06:44.480Z,7.32
2022-08-29T09:09:18.345Z,7.00
2022-08-29T09:11:53.709Z,7.45
2022-08-29T09:14:29.185Z,6.85
2022-08-29T09:16:59.558Z,7.65
2022-08-29T09:19:28.323Z,7.18
2022-08-29T09:22:00.178Z,6.97
2022-08-29T09:24:33.087Z,7.82
2022-08-29T09:27:00.563Z,7.03
2022-08-29T09:29:30.347Z,7.60
2022-08-29T09:32:08.213Z,7.28
2022-08-29T09:35:06.944Z,7.22
2022-08-29T09:37:31.338Z,7.07
2022-08-29T09:40:02.296Z,6.93
2022-08-29T09:42:32.764Z,7.15
2022-08-29T09:45:05.611Z,7.43
2022-08-29T09:47:33.902Z,6.83
2022-08-29T09:50:09.255Z,7.20
2022-08-29T09:52:38.573Z,6.68
2022-08-29T09:55:29.967Z,7.00
2022-08-29T09:58:01.006Z,6.55
2022-08-29T10:00:31.576Z,6.15
2022-08-29T10:03:01.308Z,6.30
2022-08-29T10:05:35.782Z,6.82
2022-08-29T10:08:04.417Z,4.60
2022-08-29T10:10:36.019Z,7.05
2022-08-29T10:13:08.184Z,6.40
2022-08-29T10:15:50.494Z,6.07
2022-08-29T10:18:24.746Z,7.00
2022-08-29T10:21:03.301Z,6.50
2022-08-29T10:23:35.817Z,6.65
2022-08-29T10:26:07.194Z,6.30
2022-08-29T10:28:42.932Z,6.47
2022-08-29T10:31:12.653Z,6.22
2022-08-29T10:33:57.465Z,6.75
2022-08-29T10:36:31.093Z,6.55
2022-08-29T10:39:02.406Z,6.47
2022-08-29T10:41:34.211Z,6.13
2022-08-29T10:44:11.666Z,6.35
2022-08-29T10:46:54.036Z,6.05
2022-08-29T10:49:28.492Z,5.53
2022-08-29T10:52:05.300Z,5.38
2022-08-29T10:54:41.031Z,5.63
2022-08-29T10:57:09.795Z,5.55
2022-08-29T10:59:42.710Z,5.53
2022-08-29T11:02:13.706Z,5.25
2022-08-29T11:04:44.651Z,5.32
2022-08-29T11:07:17.262Z,5.65
2022-08-29T11:09:47.158Z,5.57
2022-08-29T11:12:17.651Z,5.30
2022-08-29T11:14:48.953Z,5.35
2022-08-29T11:17:18.193Z,4.93
2022-08-29T11:20:00.201Z,4.80
2022-08-29T11:22:32.543Z,4.65
2022-08-29T11:25:05.295Z,4.88
2022-08-29T11:27:39.587Z,4.50
2022-08-29T11:30:09.339Z,4.97
2022-08-29T11:32:44.440Z,4.63
2022-08-29T11:35:18.221Z,4.28
2022-08-29T11:38:05.827Z,4.72
2022-08-29T11:41:25.880Z,4.35
2022-08-29T11:43:44.071Z,4.72
2022-08-29T11:46:13.784Z,4.80
2022-08-29T11:48:43.515Z,5.18
2022-08-29T11:51:31.809Z,4.90
2022-08-29T11:54:39.909Z,4.78
2022-08-29T11:57:39.667Z,5.28
2022-08-29T12:02:54.846Z,5.25
2022-08-29T12:05:53.993Z,6.72
2022-08-29T12:08:37.253Z,5.30
2022-08-29T12:11:07.398Z,4.85
2022-08-29T12:14:00.665Z,5.15
2022-08-29T12:16:50.564Z,4.22
2022-08-29T12:19:51.831Z,4.38
2022-08-29T12:23:01.872Z,5.50
2022-08-29T12:25:48.063Z,4.55
2022-08-29T12:28:37.501Z,5.78
2022-08-29T12:31:11.114Z,4.22
2022-08-29T12:33:46.997Z,4.05
2022-08-29T12:36:31.046Z,4.10
2022-08-29T12:44:05.858Z,3.70
2022-08-29T12:46:35.708Z,4.35
2022-08-29T12:49:08.962Z,4.20
2022-08-29T12:51:38.732Z,4.55
2022-08-29T12:54:06.913Z,4.00
2022-08-29T12:56:34.510Z,4.93
2022-08-29T12:59:04.854Z,5.30
2022-08-29T13:01:34.360Z,5.20
2022-08-29T13:04:04.417Z,4.07
2022-08-29T13:06:33.279Z,4.15
2022-08-29T13:09:01.356Z,4.25
2022-08-29T13:11:30.955Z,4.15
2022-08-29T13:14:10.833Z,4.22
2022-08-29T13:16:39.931Z,5.30
2022-08-29T13:19:19.355Z,5.13
2022-08-29T13:21:46.905Z,4.07
2022-08-29T13:24:19.227Z,4.00
2022-08-29T13:27:06.059Z,3.78
2022-08-29T13:29:37.948Z,6.80
2022-08-29T13:32:26.905Z,4.03
2022-08-29T13:35:00.931Z,4.20
2022-08-29T13:37:31.164Z,4.20
2022-08-29T13:40:33.658Z,4.40
2022-08-29T13:43:01.978Z,3.90
2022-08-29T13:45:29.669Z,3.85
2022-08-29T13:48:00.032Z,4.25
2022-08-29T13:50:28.092Z,3.70
2022-08-29T13:52:57.426Z,3.95
2022-08-29T13:55:25.047Z,4.07
2022-08-29T13:57:55.008Z,4.55
2022-08-29T14:00:32.411Z,3.90
2022-08-29T14:03:05.350Z,3.70
2022-08-29T14:05:32.982Z,5.57
2022-08-29T14:08:00.418Z,5.50
2022-08-29T14:10:27.901Z,4.70
2022-08-29T14:12:56.611Z,5.38
2022-08-29T14:15:23.978Z,5.30
2022-08-29T14:17:51.392Z,4.68
2022-08-29T14:20:19.543Z,3.78
2022-08-29T14:22:47.775Z,4.82
2022-08-29T14:25:17.348Z,4.45
2022-08-29T14:27:46.205Z,4.22
2022-08-29T14:30:17.611Z,4.20
2022-08-29T14:32:45.039Z,4.35
2022-08-29T14:35:25.916Z,4.13
2022-08-29T14:37:54.436Z,3.50
2022-08-29T14:40:22.109Z,3.72
2022-08-29T14:42:49.701Z,4.20
2022-08-29T14:45:18.526Z,4.35
2022-08-29T14:47:47.172Z,3.50
2022-08-29T14:50:16.414Z,4.05
2022-08-29T14:52:44.257Z,4.05
2022-08-29T14:55:12.678Z,3.53
2022-08-29T14:57:40.461Z,4.15
2022-08-29T15:00:09.719Z,4.18
2022-08-29T15:02:38.501Z,3.80
2022-08-29T15:05:06.773Z,3.60
2022-08-29T15:07:34.175Z,3.65
2022-08-29T15:10:01.572Z,3.50
2022-08-29T15:12:29.078Z,3.97
2022-08-29T15:14:56.502Z,3.58
2022-08-29T15:17:24.493Z,3.53
2022-08-29T15:20:36.920Z,3.70
2022-08-29T15:22:41.671Z,3.88
2022-08-29T15:25:09.470Z,3.60
2022-08-29T15:27:36.883Z,3.95
2022-08-29T15:30:05.311Z,3.65
2022-08-29T15:32:34.481Z,3.88
2022-08-29T15:35:03.201Z,3.90
2022-08-29T15:37:30.619Z,3.33
2022-08-29T15:39:58.231Z,3.33
2022-08-29T15:42:30.153Z,3.42
2022-08-29T15:44:59.515Z,3.38
2022-08-29T15:47:29.891Z,3.15
2022-08-29T15:49:57.782Z,3.28
2022-08-29T15:52:26.591Z,3.47
2022-08-29T15:54:54.031Z,3.00
2022-08-29T15:57:22.071Z,3.10
2022-08-29T15:59:58.338Z,3.70
2022-08-29T16:02:26.346Z,3.10
2022-08-29T16:04:57.000Z,3.38
2022-08-29T16:07:28.731Z,3.25
2022-08-29T16:09:57.205Z,3.00
2022-08-29T16:12:24.619Z,3.08
2022-08-29T16:15:00.372Z,3.08
2022-08-29T16:17:31.239Z,2.88
2022-08-29T16:19:59.243Z,2.60
2022-08-29T16:22:28.764Z,2.70
2022-08-29T16:24:56.229Z,3.13
2022-08-29T16:27:24.418Z,3.10
2022-08-29T16:29:52.192Z,3.10
2022-08-29T16:32:19.596Z,2.92
2022-08-29T16:34:46.975Z,2.70
2022-08-29T16:37:14.511Z,3.30
2022-08-29T16:39:43.260Z,3.17
2022-08-29T16:42:12.117Z,3.00
2022-08-29T16:44:39.910Z,3.00
2022-08-29T16:47:07.342Z,2.78
2022-08-29T16:49:34.758Z,3.00
2022-08-29T16:52:03.036Z,2.55
2022-08-29T16:54:30.773Z,2.45
2022-08-29T16:56:59.506Z,2.20
2022-08-29T16:59:26.926Z,2.80
2022-08-29T17:01:56.243Z,2.17
2022-08-29T17:04:27.584Z,2.28
2022-08-29T17:06:55.428Z,2.10
2022-08-29T17:09:23.865Z,2.00
2022-08-29T17:11:52.234Z,2.30
2022-08-29T17:14:21.119Z,1.80
2022-08-29T17:16:50.989Z,1.88
2022-08-29T17:19:18.911Z,1.73
2022-08-29T17:21:47.665Z,1.83
2022-08-29T17:24:15.311Z,1.70
2022-08-29T17:26:46.289Z,1.83
2022-08-29T17:29:14.140Z,1.90
2022-08-29T17:31:43.133Z,2.08
2022-08-29T17:34:11.873Z,1.75
2022-08-29T17:36:40.669Z,1.67
2022-08-29T17:39:09.320Z,1.90
2022-08-29T17:41:37.637Z,2.17
2022-08-29T17:44:06.296Z,2.05
2022-08-29T17:46:33.783Z,1.63
2022-08-29T17:49:07.470Z,1.90
2022-08-29T17:51:35.549Z,1.95
2022-08-29T17:54:03.476Z,1.85
2022-08-29T17:56:44.361Z,2.10
2022-08-29T17:59:12.127Z,1.98
2022-08-29T18:01:40.518Z,2.03
2022-08-29T18:04:09.358Z,1.90
2022-08-29T18:06:36.820Z,2.28
2022-08-29T18:09:04.580Z,2.15
2022-08-29T18:11:32.188Z,2.00
2022-08-29T18:14:00.022Z,2.20
2022-08-29T18:16:27.760Z,2.22
2022-08-29T18:18:55.263Z,2.50
2022-08-29T18:21:23.996Z,2.40
2022-08-29T18:23:51.391Z,2.25
2022-08-29T18:26:18.769Z,2.95
2022-08-29T18:28:46.255Z,2.90
2022-08-29T18:31:18.424Z,2.67
2022-08-29T18:34:00.112Z,2.47
2022-08-29T18:36:29.872Z,2.70
2022-08-29T18:38:57.411Z,3.00
2022-08-29T18:41:24.838Z,2.50
2022-08-29T18:43:52.328Z,2.60
2022-08-29T18:46:20.283Z,3.10
2022-08-29T18:48:47.940Z,2.50
2022-08-29T18:51:15.815Z,2.83
2022-08-29T18:53:44.897Z,2.88
2022-08-29T18:56:13.127Z,3.05
2022-08-29T18:58:44.149Z,2.72
2022-08-29T19:01:13.491Z,3.35
2022-08-29T19:03:41.579Z,3.33
2022-08-29T19:06:09.453Z,3.60
2022-08-29T19:08:37.347Z,3.25
2022-08-29T19:11:07.949Z,3.78
2022-08-29T19:13:36.187Z,3.85
2022-08-29T19:16:05.487Z,3.85
2022-08-29T19:18:34.133Z,4.07
2022-08-29T19:21:04.738Z,3.80
2022-08-29T19:23:33.977Z,4.10
2022-08-29T19:26:01.698Z,3.13
2022-08-29T19:28:30.515Z,3.88
2022-08-29T19:30:59.789Z,3.38
2022-08-29T19:33:27.191Z,3.63
2022-08-29T19:35:55.818Z,3.60
2022-08-29T19:38:24.311Z,3.28
2022-08-29T19:40:57.111Z,3.80
2022-08-29T19:43:25.134Z,3.80
2022-08-29T19:45:54.415Z,3.92
2022-08-29T19:48:22.353Z,3.70
2022-08-29T19:50:51.557Z,4.13
2022-08-29T19:53:26.550Z,3.95
2022-08-29T19:55:54.946Z,2.70
2022-08-29T19:58:22.826Z,3.80
2022-08-29T20:01:00.469Z,4.05
2022-08-29T20:03:28.809Z,4.22
2022-08-29T20:05:56.385Z,3.53
2022-08-29T20:08:24.128Z,3.45
2022-08-29T20:10:53.377Z,3.50
2022-08-29T20:13:21.042Z,3.40
2022-08-29T20:15:49.802Z,3.60
2022-08-29T20:18:19.711Z,3.45
2022-08-29T20:20:47.916Z,3.50
2022-08-29T20:23:17.332Z,3.75
2022-08-29T20:25:45.735Z,3.38
2022-08-29T20:28:15.841Z,3.53
2022-08-29T20:30:44.428Z,3.63
2022-08-29T20:33:12.123Z,3.80
2022-08-29T20:35:58.470Z,3.60
2022-08-29T20:38:25.908Z,3.80
2022-08-29T20:40:53.342Z,3.55
2022-08-29T20:43:20.855Z,3.28
2022-08-29T20:45:48.279Z,3.13
2022-08-29T20:48:16.278Z,3.00
2022-08-29T20:50:45.672Z,3.40
2022-08-29T20:53:14.627Z,3.30
2022-08-29T20:56:00.089Z,3.00
2022-08-29T20:58:29.018Z,3.00
2022-08-29T21:00:56.669Z,3.10
2022-08-29T21:03:42.080Z,3.17
2022-08-29T21:06:10.793Z,3.25
2022-08-29T21:08:40.881Z,3.38
2022-08-29T21:11:08.330Z,3.05
2022-08-29T21:13:35.723Z,3.40
2022-08-29T21:16:04.541Z,3.42
2022-08-29T21:18:32.127Z,3.15
2022-08-29T21:20:59.665Z,3.65
2022-08-29T21:23:28.973Z,3.35
2022-08-29T21:25:58.665Z,3.30
2022-08-29T21:28:27.649Z,3.55
2022-08-29T21:30:55.740Z,3.72
2022-08-29T21:33:23.439Z,3.88
2022-08-29T21:35:50.821Z,3.30
2022-08-29T21:38:18.780Z,3.28
2022-08-29T21:40:50.642Z,3.85
2022-08-29T21:43:19.111Z,3.50
2022-08-29T21:45:46.495Z,3.63
2022-08-29T21:48:13.972Z,3.85
2022-08-29T21:50:41.404Z,3.28
2022-08-29T21:53:08.869Z,3.45
2022-08-29T21:55:36.350Z,3.03
2022-08-29T21:58:05.350Z,3.97
2022-08-29T22:00:35.793Z,3.45
2022-08-29T22:03:05.827Z,3.40
2022-08-29T22:05:33.596Z,2.95
2022-08-29T22:08:02.980Z,3.50
2022-08-29T22:10:32.915Z,3.20
2022-08-29T22:13:00.912Z,3.80
2022-08-29T22:15:47.182Z,3.50
2022-08-29T22:18:15.128Z,3.53
2022-08-29T22:20:43.182Z,3.55
2022-08-29T22:23:11.207Z,3.85
2022-08-29T22:25:38.847Z,3.45
2022-08-29T22:28:06.975Z,3.67
2022-08-29T22:30:35.669Z,3.50
2022-08-29T22:33:03.772Z,3.63
2022-08-29T22:35:31.233Z,3.50
2022-08-29T22:37:58.990Z,3.60
2022-08-29T22:40:27.351Z,3.60
2022-08-29T22:42:54.912Z,3.45
2022-08-29T22:45:22.524Z,3.75
2022-08-29T22:47:51.200Z,3.25
2022-08-29T22:50:21.310Z,3.40
2022-08-29T22:52:49.167Z,3.13
2022-08-29T22:57:48.057Z,3.50
2022-08-29T23:00:19.157Z,3.55
2022-08-29T23:02:47.083Z,3.30
2022-08-29T23:05:16.618Z,3.58
2022-08-29T23:07:44.282Z,3.33
2022-08-29T23:10:13.270Z,3.38
2022-08-29T23:12:40.878Z,3.40
2022-08-29T23:15:11.301Z,3.40
2022-08-29T23:17:38.706Z,3.75
2022-08-29T23:20:07.619Z,3.33
2022-08-29T23:22:37.729Z,3.47
2022-08-29T23:25:05.790Z,3.78
2022-08-29T23:27:33.939Z,3.75
2022-08-29T23:30:01.848Z,3.63
2022-08-29T23:32:29.380Z,3.80
2022-08-29T23:34:56.908Z,3.70
2022-08-29T23:37:24.548Z,3.45
2022-08-29T23:39:53.377Z,3.63
2022-08-29T23:42:20.769Z,3.80
2022-08-29T23:44:48.764Z,3.10
2022-08-29T23:47:16.520Z,3.50
2022-08-29T23:49:43.899Z,3.35
2022-08-29T23:52:11.380Z,3.30
2022-08-29T23:54:39.163Z,3.78
2022-08-29T23:57:08.192Z,3.70
2022-08-29T23:59:53.156Z,3.63
